SEATTLE-TACOMA INTL

KSEA (SEA)
Seattle, Washington
Towered

Vatsim Metar:
KSEA 011753Z 36012KT 10SM CLR 19/12 A3004 RMK AO2 SLP178 T01940117 10200 20122 58006

No ATC Online

Traffic

Inbound:
Ident
Type
Name
ETA
Phase
ACA562
CRJ9
Christian Montmarquette CYUL
Boarding
AAL2767
A321
1437414 KPWK
18:49 Z
Cruse

Outbound:
Ident
Type
Name
Destination
Phase